• Join FlightAware (Why Join?)
  • Login
  • US Flag 
11:17PM EST


 

Airport Tracker/Info


-or-


 

Live Flight TrackerFlight Track Log ✈ N465TP ✈ 28-Aug-2013 ✈ KCOD - KEKS

Flight Track Log - Related Links

Times and Time Zones

All times are in EDT time to prevent confusion due to time zone crossing. See the N465TP flight status page for this flight to view local times or setup timezone preferences in your user account.

Time Position Orientation Groundspeed Altitude Reporting Facility
EDT Latitude Longitude Course Direction KTS MPH feet Rate Location/Type
07:04PM 44.5589 -109.2142 294° West 147 169 10,500  Level Salt Lake Center
07:05PM 44.5761 -109.2697 294° West 150 173 11,600 1,200 Climbing Salt Lake Center
07:06PM 44.5942 -109.3272 294° West 157 181 13,100 1,380 Climbing Salt Lake Center
07:07PM 44.6122 -109.3864 293° West 163 188 14,500 1,320 Climbing Salt Lake Center
07:08PM 44.6308 -109.4469 293° West 168 193 15,800 1,500 Climbing Salt Lake Center
07:09PM 44.6550 -109.5217 294° West 174 200 17,600 960 Climbing Salt Lake Center
07:10PM 44.6756 -109.5919 292° West 188 216 17,900 120 Climbing Salt Lake Center
07:11PM 44.6994 -109.6722 293° West 213 245 17,900  Level Salt Lake Center
07:12PM 44.7256 -109.7567 294° West 230 265 18,000  Climbing Salt Lake Center
07:13PM 44.7506 -109.8394 293° West 236 272 17,900  Descending Salt Lake Center
07:14PM 44.7789 -109.9292 294° West 227 261 18,000  Climbing Salt Lake Center
07:15PM 44.8006 -110.0044 292° West 221 254 18,000  Level Salt Lake Center
07:16PM 44.8264 -110.0967 292° West 224 258 18,000  Level Salt Lake Center
07:17PM 44.8511 -110.1756 294° West 228 262 18,000  Level Salt Lake Center
07:18PM 44.8792 -110.2678 293° West 229 264 18,000  Level Salt Lake Center
07:19PM 44.9028 -110.3478 293° West 231 266 18,000  Level Salt Lake Center
07:20PM 44.9311 -110.4414 293° West 232 267 18,000  Level Salt Lake Center
07:21PM 44.9503 -110.5081 292° West 205 236 18,000  Level Salt Lake Center
07:22PM 44.9728 -110.5889 292° West 199 229 18,000  Level Salt Lake Center
07:24PM 44.9964 -110.6708 292° West 222 255 18,000  Level Salt Lake Center
07:25PM 45.0247 -110.7664 293° West 235 270 18,000  Level Salt Lake Center
07:26PM 45.0483 -110.8461 293° West 232 267 18,000  Level Salt Lake Center
07:27PM 45.0639 -110.9367 284° West 217 250 18,000 -60 Level Salt Lake Center
07:28PM 45.0725 -111.0117 279° West 207 238 17,900  Descending Salt Lake Center
07:29PM 45.1031 -111.0950 297° West 214 246 18,000 -60 Climbing Salt Lake Center
07:30PM 45.1269 -111.1722 294° West 219 252 17,800 -660 Descending Salt Lake Center
07:31PM 45.1519 -111.2517 294° West 225 259 16,700 -1,380 Descending Salt Lake Center
07:32PM 45.1789 -111.3392 294° West 223 257 15,000 -1,680 Descending Salt Lake Center
07:34PM 45.2172 -111.4795 291° West  Level FlightAware Approximate
07:41PM 45.2667 -111.6333 305° West  Level FlightAware Approximate
07:42PM 45.2744 -111.6489 305° West  Level Estimated
07:43PM 45.2744 -111.6489 305° West  Level Estimated
07:44PM 45.2744 -111.6489 305° West  Level Estimated
07:45PM 45.2744 -111.6489 305° West  Level Estimated
07:46PM 45.2744 -111.6489 305° West  Level Estimated
07:47PM 45.2744 -111.6489 305° West  Level Estimated
07:48PM 45.2744 -111.6489 305° West  Level Estimated
07:49PM 45.2744 -111.6489 305° West  Level Estimated
07:50PM 45.2744 -111.6489 305° West  Level Estimated
07:51PM 45.2744 -111.6489 305° West  Level Estimated
07:52PM 45.2744 -111.6489 305° West  Level Estimated